Time;durP1;ratioP1;P1;durP2;ratioP2;P2;SDS_P1;SDS_P2;PMS_P1;PMS_P2;Temp;Humidity;BMP_temperature;BMP_pressure;BME280_temperature;BME280_humidity;BME280_pressure;Samples;Min_cycle;Max_cycle;Signal;HPM_P1;HPM_P2
2021/09/03 00:00:24;;;;;;;;;;;;;;;20.77;56.60;96186.38;1047475;28;1141;-54
2021/09/03 00:01:15;;;;;;;;;;;;;;;20.76;56.33;96185.59;1048935;28;1152;-56
2021/09/03 00:02:05;;;;;;;;;;;;;;;20.75;56.22;96176.09;1047980;28;1341;-55
2021/09/03 00:02:36;;;;;;;;;;;;;;;20.76;56.46;96180.31;1047392;28;2102;-55
2021/09/03 00:03:06;;;;;;;;;;;;;;;20.76;56.28;96177.69;1048664;28;1187;-57
2021/09/03 00:03:36;;;;;;;;;;;;;;;20.76;56.57;96182.94;1048257;28;1229;-57
2021/09/03 00:04:07;;;;;;;;;;;;;;;20.76;56.27;96180.31;1048318;28;1138;-57
2021/09/03 00:04:37;;;;;;;;;;;;;;;20.76;56.32;96180.31;1048194;28;1438;-57
2021/09/03 00:05:12;;;;;;;;;;;;;;;20.77;56.35;96181.88;1042719;28;1595;-56
2021/09/03 00:05:43;;;;;;;;;;;;;;;20.76;56.14;96175.03;1048305;28;1149;-54
2021/09/03 00:06:13;;;;;;;;;;;;;;;20.76;56.31;96180.31;1048695;28;1299;-55
2021/09/03 00:06:43;;;;;;;;;;;;;;;20.76;56.60;96176.88;1048558;28;1161;-55
2021/09/03 00:07:13;;;;;;;;;;;;;;;20.77;56.33;96181.13;1048157;28;1245;-56
2021/09/03 00:07:44;;;;;;;;;;;;;;;20.76;56.35;96175.03;1046076;28;2076;-56
2021/09/03 00:08:14;;;;;;;;;;;;;;;20.76;56.27;96179.50;1046912;28;1201;-56
2021/09/03 00:08:44;;;;;;;;;;;;;;;20.76;56.29;96175.03;1048048;28;1237;-54
2021/09/03 00:09:15;;;;;;;;;;;;;;;20.77;56.35;96179.25;1048614;28;1244;-52
2021/09/03 00:09:45;;;;;;;;;;;;;;;20.76;56.16;96182.94;1048400;28;1350;-51
2021/09/03 00:10:16;;;;;;;;;;;;;;;20.76;56.04;96180.31;1048921;28;1193;-54
2021/09/03 00:10:46;;;;;;;;;;;;;;;20.77;55.99;96176.59;1048754;28;1268;-57
2021/09/03 00:11:16;;;;;;;;;;;;;;;20.76;56.22;96177.69;1048801;28;1062;-57
2021/09/03 00:11:47;;;;;;;;;;;;;;;20.75;56.06;96172.69;1047370;28;1067;-57
2021/09/03 00:12:17;;;;;;;;;;;;;;;20.75;56.00;96172.69;1048697;28;1161;-58
2021/09/03 00:12:47;;;;;;;;;;;;;;;20.76;56.44;96176.88;1047520;28;2114;-57
2021/09/03 00:13:18;;;;;;;;;;;;;;;20.76;56.36;96168.97;1048642;28;1113;-56
2021/09/03 00:13:48;;;;;;;;;;;;;;;20.75;56.51;96170.06;1047952;28;1387;-53
2021/09/03 00:14:18;;;;;;;;;;;;;;;20.76;56.09;96175.03;1048480;28;1261;-53
2021/09/03 00:14:49;;;;;;;;;;;;;;;20.76;56.24;96169.78;1048237;28;1213;-53
2021/09/03 00:15:19;;;;;;;;;;;;;;;20.76;56.04;96172.41;1048518;28;1221;-52
2021/09/03 00:15:49;;;;;;;;;;;;;;;20.75;56.25;96167.41;1048537;28;1319;-53
2021/09/03 00:16:20;;;;;;;;;;;;;;;20.75;56.22;96167.41;1047679;28;1885;-54
2021/09/03 00:16:50;;;;;;;;;;;;;;;20.74;56.30;96166.63;1048655;28;1338;-54
2021/09/03 00:17:20;;;;;;;;;;;;;;;20.75;56.30;96173.44;1048833;28;1193;-56
2021/09/03 00:17:51;;;;;;;;;;;;;;;20.76;56.23;96174.25;1046939;28;2063;-54
2021/09/03 00:18:21;;;;;;;;;;;;;;;20.75;56.08;96164.78;1048595;28;1273;-56
2021/09/03 00:18:52;;;;;;;;;;;;;;;20.75;56.15;96167.41;1046970;28;1304;-55
2021/09/03 00:19:22;;;;;;;;;;;;;;;20.75;55.87;96162.91;1045881;28;1971;-52
2021/09/03 00:19:52;;;;;;;;;;;;;;;20.76;55.92;96163.72;1043886;28;1258;-53
2021/09/03 00:20:23;;;;;;;;;;;;;;;20.76;56.06;96169.78;1048392;28;1256;-56
2021/09/03 00:20:53;;;;;;;;;;;;;;;20.76;56.02;96166.34;1048303;28;1252;-56
2021/09/03 00:21:23;;;;;;;;;;;;;;;20.75;56.21;96156.88;1048475;28;1214;-57
2021/09/03 00:21:54;;;;;;;;;;;;;;;20.77;55.83;96160.03;1048429;28;1299;-53
2021/09/03 00:22:24;;;;;;;;;;;;;;;20.76;56.00;96168.97;1048770;28;1362;-54
2021/09/03 00:22:54;;;;;;;;;;;;;;;20.76;55.99;96164.50;1047145;28;2131;-55
2021/09/03 00:23:24;;;;;;;;;;;;;;;20.76;56.06;96167.16;1048466;28;1307;-57
2021/09/03 00:23:55;;;;;;;;;;;;;;;20.76;55.84;96166.34;1048201;28;1316;-53
2021/09/03 00:24:25;;;;;;;;;;;;;;;20.76;55.98;96168.97;1048737;28;1260;-54
2021/09/03 00:24:55;;;;;;;;;;;;;;;20.75;55.92;96162.16;1047554;28;1774;-56
2021/09/03 00:25:26;;;;;;;;;;;;;;;20.74;56.10;96166.63;1048779;28;1284;-56
2021/09/03 00:25:56;;;;;;;;;;;;;;;20.75;56.00;96162.91;1046616;28;1057;-54
2021/09/03 00:26:26;;;;;;;;;;;;;;;20.75;56.01;96164.78;1048485;28;1267;-53
2021/09/03 00:26:57;;;;;;;;;;;;;;;20.74;56.01;96163.97;1048690;28;1036;-54
2021/09/03 00:27:27;;;;;;;;;;;;;;;20.76;56.08;96166.34;1048627;28;1049;-56
2021/09/03 00:27:57;;;;;;;;;;;;;;;20.75;55.87;96162.16;1047219;28;2254;-56
2021/09/03 00:28:28;;;;;;;;;;;;;;;20.76;55.97;96164.50;1048440;28;1149;-55
2021/09/03 00:28:58;;;;;;;;;;;;;;;20.74;56.17;96158.72;1048733;28;1107;-57
2021/09/03 00:29:28;;;;;;;;;;;;;;;20.76;55.99;96159.25;1045919;28;1756;-57
2021/09/03 00:29:58;;;;;;;;;;;;;;;20.75;56.03;96159.50;1047463;28;2103;-56
2021/09/03 00:30:29;;;;;;;;;;;;;;;20.76;55.97;96163.72;1048101;28;1226;-55
2021/09/03 00:30:59;;;;;;;;;;;;;;;20.76;55.92;96163.72;1048211;28;1142;-54
2021/09/03 00:31:29;;;;;;;;;;;;;;;20.75;56.04;96162.16;1048413;28;1379;-55
2021/09/03 00:32:00;;;;;;;;;;;;;;;20.76;55.91;96166.34;1048228;28;1198;-55
2021/09/03 00:32:30;;;;;;;;;;;;;;;20.74;56.18;96166.63;1048039;28;1253;-54
2021/09/03 00:33:00;;;;;;;;;;;;;;;20.74;55.89;96166.63;1047397;28;2134;-55
2021/09/03 00:33:31;;;;;;;;;;;;;;;20.75;55.72;96159.50;1046688;28;1847;-56
2021/09/03 00:34:01;;;;;;;;;;;;;;;20.74;56.00;96161.34;1044254;28;2027;-54
2021/09/03 00:34:31;;;;;;;;;;;;;;;20.76;56.06;96163.72;1046513;28;1994;-55
2021/09/03 00:35:02;;;;;;;;;;;;;;;20.75;55.79;96159.50;1048066;28;1718;-55
2021/09/03 00:35:32;;;;;;;;;;;;;;;20.74;55.73;96161.34;1056191;28;1437;-52
2021/09/03 00:36:02;;;;;;;;;;;;;;;20.74;56.06;96156.06;1056603;28;1123;-50
2021/09/03 00:36:33;;;;;;;;;;;;;;;20.74;55.84;96166.63;1055674;28;1713;-53
2021/09/03 00:37:03;;;;;;;;;;;;;;;20.75;55.94;96159.50;1056741;28;1119;-54
2021/09/03 00:37:33;;;;;;;;;;;;;;;20.73;55.85;96159.75;1048208;28;1161;-53
2021/09/03 00:38:04;;;;;;;;;;;;;;;20.74;55.69;96153.44;1048694;28;1068;-55
2021/09/03 00:38:34;;;;;;;;;;;;;;;20.75;55.74;96159.50;1047024;28;2159;-51
2021/09/03 00:39:04;;;;;;;;;;;;;;;20.74;55.82;96156.06;1048580;28;1910;-54
2021/09/03 00:39:35;;;;;;;;;;;;;;;20.74;55.86;96157.91;1045335;28;1516;-53
2021/09/03 00:40:05;;;;;;;;;;;;;;;20.76;55.92;96163.72;1048105;28;1131;-53
2021/09/03 00:40:36;;;;;;;;;;;;;;;20.73;56.09;96157.13;1048074;28;1217;-53
2021/09/03 00:41:06;;;;;;;;;;;;;;;20.76;55.86;96158.44;1048206;28;1115;-53
2021/09/03 00:41:36;;;;;;;;;;;;;;;20.74;55.84;96158.72;1048673;28;1256;-56
2021/09/03 00:42:13;;;;;;;;;;;;;;;20.75;55.69;96156.88;1048397;28;1063;-51
2021/09/03 00:42:44;;;;;;;;;;;;;;;20.74;55.73;96161.34;1046402;28;1242;-56
2021/09/03 00:43:14;;;;;;;;;;;;;;;20.75;55.83;96167.41;1048373;28;1241;-53
2021/09/03 00:43:45;;;;;;;;;;;;;;;20.74;55.87;96163.97;1045831;28;2168;-51
2021/09/03 00:44:15;;;;;;;;;;;;;;;20.74;55.88;96166.63;1047688;28;1706;-54
2021/09/03 00:44:45;;;;;;;;;;;;;;;20.73;55.74;96165.03;1047006;28;1221;-53
2021/09/03 00:45:16;;;;;;;;;;;;;;;20.75;55.98;96167.41;1048741;28;1205;-52
2021/09/03 00:45:46;;;;;;;;;;;;;;;20.74;55.73;96163.97;1048488;28;1146;-55
2021/09/03 00:46:16;;;;;;;;;;;;;;;20.74;55.62;96161.34;1048710;28;1066;-54
2021/09/03 00:46:47;;;;;;;;;;;;;;;20.74;55.57;96160.56;1048102;28;1355;-56
2021/09/03 00:47:17;;;;;;;;;;;;;;;20.74;55.79;96166.63;1048456;28;1162;-55
2021/09/03 00:47:47;;;;;;;;;;;;;;;20.75;55.69;96159.50;1048698;28;1182;-53
2021/09/03 00:48:17;;;;;;;;;;;;;;;20.75;55.69;96159.50;1048466;28;1257;-52
2021/09/03 00:48:48;;;;;;;;;;;;;;;20.74;55.64;96155.28;1046819;28;2143;-54
2021/09/03 00:49:18;;;;;;;;;;;;;;;20.74;55.84;96156.06;1047366;28;2097;-50
2021/09/03 00:49:49;;;;;;;;;;;;;;;20.74;55.92;96157.91;1048250;28;1170;-52
2021/09/03 00:50:19;;;;;;;;;;;;;;;20.74;55.59;96163.97;1047205;28;1612;-54
2021/09/03 00:50:50;;;;;;;;;;;;;;;20.74;55.52;96156.06;1048428;28;1225;-54
2021/09/03 00:51:20;;;;;;;;;;;;;;;20.75;55.58;96156.88;1048531;28;1185;-51
2021/09/03 00:51:50;;;;;;;;;;;;;;;20.74;55.82;96160.56;1047593;28;1229;-54
2021/09/03 00:52:21;;;;;;;;;;;;;;;20.73;55.86;96151.84;1048379;28;1276;-55
2021/09/03 00:52:51;;;;;;;;;;;;;;;20.74;55.87;96152.66;1048138;28;1253;-53
2021/09/03 00:53:22;;;;;;;;;;;;;;;20.73;55.71;96154.47;1047625;28;1976;-56
2021/09/03 00:53:52;;;;;;;;;;;;;;;20.74;55.62;96156.06;1046568;28;2405;-52
2021/09/03 00:54:22;;;;;;;;;;;;;;;20.73;55.90;96154.47;1043289;28;2344;-54
2021/09/03 00:54:54;;;;;;;;;;;;;;;20.73;56.08;96154.47;1044286;28;1222;-57
2021/09/03 00:55:24;;;;;;;;;;;;;;;20.74;55.87;96160.56;1047909;28;2278;-56
2021/09/03 00:55:55;;;;;;;;;;;;;;;20.74;55.79;96153.44;1044465;28;1268;-56
2021/09/03 00:56:25;;;;;;;;;;;;;;;20.73;55.58;96149.22;1047828;28;1249;-56
2021/09/03 00:56:55;;;;;;;;;;;;;;;20.74;55.63;96156.06;1040633;28;1335;-57
2021/09/03 00:57:26;;;;;;;;;;;;;;;20.73;55.63;96146.59;1044702;28;1172;-53
2021/09/03 00:57:56;;;;;;;;;;;;;;;20.74;55.52;96155.28;1049162;28;1071;-54
2021/09/03 00:58:26;;;;;;;;;;;;;;;20.73;55.77;96148.44;1048897;28;2095;-55
2021/09/03 00:58:57;;;;;;;;;;;;;;;20.74;55.80;96150.00;1052194;28;2418;-52
2021/09/03 00:59:27;;;;;;;;;;;;;;;20.72;55.73;96145.00;1048203;28;1910;-56
2021/09/03 00:59:59;;;;;;;;;;;;;;;20.72;55.74;96142.38;1049263;28;1081;-56
2021/09/03 01:00:29;;;;;;;;;;;;;;;20.73;55.86;96151.84;1048050;28;1261;-50
2021/09/03 01:00:59;;;;;;;;;;;;;;;20.73;55.79;96149.22;1049393;28;1184;-52
2021/09/03 01:01:29;;;;;;;;;;;;;;;20.72;55.60;96150.28;1049139;28;1213;-55
2021/09/03 01:02:00;;;;;;;;;;;;;;;20.72;55.89;96145.00;1048293;28;1761;-56
2021/09/03 01:02:30;;;;;;;;;;;;;;;20.72;55.75;96147.66;1048939;28;1295;-52
2021/09/03 01:03:00;;;;;;;;;;;;;;;20.72;55.71;96150.28;1049499;28;1119;-55
2021/09/03 01:03:31;;;;;;;;;;;;;;;20.74;55.52;96150.00;1048284;28;2179;-55
2021/09/03 01:04:01;;;;;;;;;;;;;;;20.73;55.68;96148.44;1048900;28;1504;-52
2021/09/03 01:04:31;;;;;;;;;;;;;;;20.73;55.80;96146.59;1049127;28;1253;-56
2021/09/03 01:05:02;;;;;;;;;;;;;;;20.73;55.70;96143.19;1047615;28;2033;-54
2021/09/03 01:05:32;;;;;;;;;;;;;;;20.73;55.53;96143.94;1048432;28;1253;-57
2021/09/03 01:06:05;;;;;;;;;;;;;;;20.73;55.66;96146.59;1049109;28;1064;-52
2021/09/03 01:06:35;;;;;;;;;;;;;;;20.73;55.38;96143.94;1044702;28;1336;-52
2021/09/03 01:07:05;;;;;;;;;;;;;;;20.73;55.56;96143.19;1049359;28;1155;-53
2021/09/03 01:07:36;;;;;;;;;;;;;;;20.73;55.60;96146.59;1053230;28;1264;-54
2021/09/03 01:08:06;;;;;;;;;;;;;;;20.73;55.62;96143.94;1049242;28;1124;-53
2021/09/03 01:08:37;;;;;;;;;;;;;;;20.72;55.54;96137.13;1047724;28;2146;-56
2021/09/03 01:09:07;;;;;;;;;;;;;;;20.73;55.77;96138.69;1044493;28;1168;-53
2021/09/03 01:09:37;;;;;;;;;;;;;;;20.73;55.55;96137.91;1044970;28;1233;-54
2021/09/03 01:10:12;;;;;;;;;;;;;;;20.72;55.70;96142.38;1053333;28;1538;-53
2021/09/03 01:11:02;;;;;;;;;;;;;;;20.73;55.67;96138.69;1052793;28;1883;-52
2021/09/03 01:11:34;;;;;;;;;;;;;;;20.72;55.74;96142.38;1048798;28;1483;-55
2021/09/03 01:12:21;;;;;;;;;;;;;;;20.73;55.71;96143.19;1041560;28;1357;-55
2021/09/03 01:12:52;;;;;;;;;;;;;;;20.73;55.81;96138.69;1044876;28;1237;-53
2021/09/03 01:13:23;;;;;;;;;;;;;;;20.72;55.28;96137.13;1043043;28;1587;-54
2021/09/03 01:13:54;;;;;;;;;;;;;;;20.72;55.37;96134.47;1039352;28;2105;-57
2021/09/03 01:14:30;;;;;;;;;;;;;;;20.72;55.63;96137.13;1040651;28;1242;-53
2021/09/03 01:15:13;;;;;;;;;;;;;;;20.72;55.58;96131.84;1042868;28;1776;-55
2021/09/03 01:16:03;;;;;;;;;;;;;;;20.73;55.77;96138.69;1042649;28;1882;-53
2021/09/03 01:16:35;;;;;;;;;;;;;;;20.73;55.50;96137.91;1048810;28;1296;-56
2021/09/03 01:17:06;;;;;;;;;;;;;;;20.74;55.74;96142.09;1049110;28;1023;-53
2021/09/03 01:17:37;;;;;;;;;;;;;;;20.73;55.46;96138.69;1049433;28;1248;-56
2021/09/03 01:18:07;;;;;;;;;;;;;;;20.73;55.62;96141.31;1049092;28;1165;-57
2021/09/03 01:18:50;;;;;;;;;;;;;;;20.73;55.59;96143.19;1047010;28;2058;-55
2021/09/03 01:19:40;;;;;;;;;;;;;;;20.72;55.39;96137.13;1042475;28;1125;-52
2021/09/03 01:20:25;;;;;;;;;;;;;;;20.73;55.34;96141.31;1039153;28;1353;-53
2021/09/03 01:20:55;;;;;;;;;;;;;;;20.73;55.29;96135.28;1049411;28;1841;-57
2021/09/03 01:21:26;;;;;;;;;;;;;;;20.73;55.65;96140.53;1052608;28;1485;-56
2021/09/03 01:21:56;;;;;;;;;;;;;;;20.73;55.59;96140.53;1053159;28;1069;-57
2021/09/03 01:22:28;;;;;;;;;;;;;;;20.72;55.34;96137.13;1056521;28;1299;-53
2021/09/03 01:23:18;;;;;;;;;;;;;;;20.72;55.39;96142.38;1046871;28;1279;-56
2021/09/03 01:24:08;;;;;;;;;;;;;;;20.72;55.33;96142.38;1048843;28;1313;-55
2021/09/03 01:24:59;;;;;;;;;;;;;;;20.72;55.38;96142.38;1048845;28;1262;-53
2021/09/03 01:25:46;;;;;;;;;;;;;;;20.72;55.38;96139.75;1047522;28;1285;-56
2021/09/03 01:26:16;;;;;;;;;;;;;;;20.72;55.55;96136.31;1049090;28;1217;-56
2021/09/03 01:26:47;;;;;;;;;;;;;;;20.72;55.57;96137.13;1048666;28;1297;-57
2021/09/03 01:27:17;;;;;;;;;;;;;;;20.73;55.48;96137.91;1048979;28;1158;-57
2021/09/03 01:27:47;;;;;;;;;;;;;;;20.72;55.46;96142.38;1049220;28;1201;-57
2021/09/03 01:28:17;;;;;;;;;;;;;;;20.72;55.50;96142.38;1049274;28;1260;-57
2021/09/03 01:28:48;;;;;;;;;;;;;;;20.72;55.36;96141.59;1047387;28;2080;-55
2021/09/03 01:29:18;;;;;;;;;;;;;;;20.71;55.22;96140.78;1049325;28;1693;-57
2021/09/03 01:29:49;;;;;;;;;;;;;;;20.72;55.35;96139.75;1048927;28;1300;-54
2021/09/03 01:30:19;;;;;;;;;;;;;;;20.73;55.46;96140.53;1049047;28;1292;-55
2021/09/03 01:30:49;;;;;;;;;;;;;;;20.72;55.21;96136.31;1048360;28;1273;-55
2021/09/03 01:31:20;;;;;;;;;;;;;;;20.72;55.43;96138.94;1049003;28;1261;-56
2021/09/03 01:31:50;;;;;;;;;;;;;;;20.73;55.18;96138.69;1049672;28;1236;-54
2021/09/03 01:32:20;;;;;;;;;;;;;;;20.72;55.46;96134.47;1049137;28;1272;-57
2021/09/03 01:32:51;;;;;;;;;;;;;;;20.73;55.34;96137.91;1048856;28;1271;-55
2021/09/03 01:33:21;;;;;;;;;;;;;;;20.73;55.31;96135.28;1048803;28;1628;-55
2021/09/03 01:33:55;;;;;;;;;;;;;;;20.73;55.41;96137.91;1047055;28;2082;-57
2021/09/03 01:34:25;;;;;;;;;;;;;;;20.72;55.20;96137.13;1047990;28;1237;-51
2021/09/03 01:34:55;;;;;;;;;;;;;;;20.72;55.38;96131.84;1049069;28;1233;-56
2021/09/03 01:35:26;;;;;;;;;;;;;;;20.73;55.51;96136.03;1048015;28;1754;-55
2021/09/03 01:35:56;;;;;;;;;;;;;;;20.73;55.25;96136.03;1049111;28;1229;-55
2021/09/03 01:36:27;;;;;;;;;;;;;;;20.72;55.38;96137.13;1046194;28;1700;-54
2021/09/03 01:36:57;;;;;;;;;;;;;;;20.72;55.45;96137.13;1049191;28;933;-56
2021/09/03 01:37:28;;;;;;;;;;;;;;;20.72;55.37;96139.75;1048787;28;1345;-50
2021/09/03 01:37:58;;;;;;;;;;;;;;;20.71;55.30;96134.75;1049095;28;1060;-56
2021/09/03 01:38:28;;;;;;;;;;;;;;;20.71;55.16;96146.06;1044655;28;1351;-56
2021/09/03 01:38:59;;;;;;;;;;;;;;;20.72;55.14;96136.31;1043686;28;2066;-55
2021/09/03 01:39:29;;;;;;;;;;;;;;;20.71;55.45;96140.78;1048956;28;1914;-57
2021/09/03 01:40:00;;;;;;;;;;;;;;;20.72;55.29;96144.22;1049114;28;1084;-53
2021/09/03 01:40:30;;;;;;;;;;;;;;;20.71;55.10;96143.41;1044604;28;1447;-56
2021/09/03 01:41:00;;;;;;;;;;;;;;;20.72;55.44;96145.00;1044519;28;1169;-55
2021/09/03 01:41:31;;;;;;;;;;;;;;;20.72;55.28;96144.22;1048887;28;1328;-53
2021/09/03 01:42:01;;;;;;;;;;;;;;;20.72;55.23;96145.00;1048897;28;1107;-55
2021/09/03 01:42:31;;;;;;;;;;;;;;;20.72;55.28;96144.22;1049081;28;1225;-57
2021/09/03 01:43:02;;;;;;;;;;;;;;;20.71;55.18;96140.78;1048518;28;2186;-56
2021/09/03 01:43:32;;;;;;;;;;;;;;;20.72;55.28;96141.59;1048846;28;1492;-56
2021/09/03 01:44:03;;;;;;;;;;;;;;;20.71;55.32;96143.41;1048205;28;2128;-53
2021/09/03 01:44:33;;;;;;;;;;;;;;;20.72;55.25;96141.59;1049258;28;1255;-54
2021/09/03 01:45:04;;;;;;;;;;;;;;;20.71;55.14;96146.06;1047254;28;1602;-56
2021/09/03 01:45:34;;;;;;;;;;;;;;;20.71;55.07;96143.41;1048746;28;1268;-52
2021/09/03 01:46:05;;;;;;;;;;;;;;;20.71;55.24;96140.78;1049237;28;1347;-55
2021/09/03 01:46:36;;;;;;;;;;;;;;;20.71;55.25;96143.41;1049036;28;1404;-56
2021/09/03 01:47:06;;;;;;;;;;;;;;;20.71;55.22;96143.41;1049098;28;1076;-55
2021/09/03 01:47:36;;;;;;;;;;;;;;;20.71;55.04;96143.41;1049170;28;1134;-55
2021/09/03 01:48:07;;;;;;;;;;;;;;;20.71;55.15;96135.53;1049047;28;1129;-52
2021/09/03 01:48:37;;;;;;;;;;;;;;;20.71;55.06;96140.03;1046586;28;1248;-56
2021/09/03 01:49:07;;;;;;;;;;;;;;;20.71;55.04;96138.16;1047777;28;2172;-54
2021/09/03 01:49:38;;;;;;;;;;;;;;;20.71;55.24;96146.06;1048745;28;1123;-53
2021/09/03 01:50:08;;;;;;;;;;;;;;;20.71;55.30;96140.78;1048961;28;1100;-56
2021/09/03 01:50:38;;;;;;;;;;;;;;;20.72;54.99;96136.31;1044669;28;1123;-55
2021/09/03 01:51:09;;;;;;;;;;;;;;;20.71;55.02;96143.41;1048891;28;1088;-53
2021/09/03 01:51:39;;;;;;;;;;;;;;;20.72;55.09;96142.38;1044286;28;1407;-56
2021/09/03 01:52:09;;;;;;;;;;;;;;;20.71;55.23;96140.03;1044651;28;1348;-57
2021/09/03 01:52:40;;;;;;;;;;;;;;;20.71;55.08;96138.16;1046905;28;1818;-56
2021/09/03 01:53:10;;;;;;;;;;;;;;;20.71;55.07;96140.78;1048323;28;1225;-54
2021/09/03 01:53:40;;;;;;;;;;;;;;;20.71;55.16;96140.78;1048008;28;1202;-53
2021/09/03 01:54:11;;;;;;;;;;;;;;;20.72;55.31;96141.59;1048032;28;2466;-57
2021/09/03 01:54:41;;;;;;;;;;;;;;;20.72;55.29;96139.75;1049182;28;1135;-56
2021/09/03 01:55:11;;;;;;;;;;;;;;;20.71;55.09;96138.16;1049270;28;1302;-55
2021/09/03 01:55:42;;;;;;;;;;;;;;;20.72;55.19;96141.59;1048791;28;1102;-56
2021/09/03 01:56:12;;;;;;;;;;;;;;;20.72;55.15;96138.94;1049343;28;1196;-54
2021/09/03 01:56:42;;;;;;;;;;;;;;;20.71;55.03;96138.16;1049068;28;1190;-55
2021/09/03 01:57:13;;;;;;;;;;;;;;;20.72;55.19;96138.94;1049092;28;1200;-55
2021/09/03 01:57:43;;;;;;;;;;;;;;;20.71;54.99;96142.66;1048904;28;1126;-54
2021/09/03 01:58:13;;;;;;;;;;;;;;;20.71;55.08;96146.06;1048951;28;1312;-53
2021/09/03 01:58:44;;;;;;;;;;;;;;;20.71;55.26;96145.28;1048591;28;1336;-53
2021/09/03 01:59:14;;;;;;;;;;;;;;;20.71;55.30;96143.41;1047836;28;2224;-56
2021/09/03 01:59:44;;;;;;;;;;;;;;;20.71;55.02;96146.06;1048442;28;1774;-52
2021/09/03 02:00:15;;;;;;;;;;;;;;;20.71;55.04;96143.41;1049191;28;1350;-54
2021/09/03 02:00:45;;;;;;;;;;;;;;;20.71;55.10;96140.03;1048922;28;1004;-55
2021/09/03 02:01:15;;;;;;;;;;;;;;;20.71;55.00;96140.78;1047879;28;1616;-53
2021/09/03 02:01:46;;;;;;;;;;;;;;;20.70;55.16;96139.22;1047575;28;2060;-54
2021/09/03 02:02:16;;;;;;;;;;;;;;;20.71;54.94;96140.03;1049109;28;1303;-55
2021/09/03 02:02:46;;;;;;;;;;;;;;;20.70;54.98;96141.84;1049053;28;1214;-57
2021/09/03 02:03:16;;;;;;;;;;;;;;;20.71;54.94;96138.16;1047209;28;1135;-54
2021/09/03 02:03:47;;;;;;;;;;;;;;;20.71;54.99;96137.38;1049110;28;1208;-51
2021/09/03 02:04:17;;;;;;;;;;;;;;;20.71;55.17;96140.03;1049208;28;1217;-54
2021/09/03 02:04:48;;;;;;;;;;;;;;;20.70;55.07;96139.22;1047455;28;2358;-56
2021/09/03 02:05:18;;;;;;;;;;;;;;;20.70;55.02;96139.22;1043322;28;2006;-54
2021/09/03 02:05:48;;;;;;;;;;;;;;;20.70;55.07;96136.59;1047689;28;1139;-57
2021/09/03 02:06:19;;;;;;;;;;;;;;;20.70;55.17;96138.44;1048556;28;1265;-53
2021/09/03 02:06:49;;;;;;;;;;;;;;;20.70;55.00;96139.22;1048935;28;1206;-53
2021/09/03 02:07:19;;;;;;;;;;;;;;;20.71;55.06;96138.16;1044915;28;2046;-56
2021/09/03 02:07:50;;;;;;;;;;;;;;;20.70;55.21;96133.94;1046684;28;2081;-57
2021/09/03 02:08:20;;;;;;;;;;;;;;;20.71;55.08;96134.75;1048683;28;1155;-56
2021/09/03 02:08:50;;;;;;;;;;;;;;;20.70;54.95;96133.94;1048632;28;1218;-55
2021/09/03 02:09:20;;;;;;;;;;;;;;;20.72;54.95;96138.94;1048803;28;1225;-54
2021/09/03 02:09:51;;;;;;;;;;;;;;;20.70;54.88;96138.44;1049064;28;1166;-57
2021/09/03 02:10:21;;;;;;;;;;;;;;;20.70;55.01;96139.22;1047580;28;2452;-57
2021/09/03 02:10:52;;;;;;;;;;;;;;;20.71;55.21;96140.03;1049034;28;1213;-55
2021/09/03 02:11:22;;;;;;;;;;;;;;;20.70;54.88;96133.16;1049210;28;1189;-55
2021/09/03 02:11:52;;;;;;;;;;;;;;;20.70;55.06;96127.88;1049043;28;1242;-54
2021/09/03 02:12:23;;;;;;;;;;;;;;;20.69;54.97;96132.34;1046361;28;1410;-54
2021/09/03 02:12:53;;;;;;;;;;;;;;;20.70;55.08;96139.22;1048717;28;1214;-53
2021/09/03 02:13:23;;;;;;;;;;;;;;;20.70;54.89;96133.16;1049226;28;1272;-55
2021/09/03 02:13:54;;;;;;;;;;;;;;;20.70;55.08;96136.59;1049181;28;1213;-55
2021/09/03 02:14:24;;;;;;;;;;;;;;;20.71;54.70;96134.75;1049008;28;1233;-56
2021/09/03 02:14:54;;;;;;;;;;;;;;;20.70;54.93;96133.16;1048476;28;2110;-55
2021/09/03 02:15:24;;;;;;;;;;;;;;;20.69;55.05;96128.97;1047306;28;1619;-52
2021/09/03 02:15:55;;;;;;;;;;;;;;;20.70;54.88;96128.69;1048807;28;1158;-52
2021/09/03 02:16:25;;;;;;;;;;;;;;;20.70;55.09;96127.88;1047383;28;1526;-55
2021/09/03 02:16:55;;;;;;;;;;;;;;;20.70;54.92;96123.41;1048472;28;1178;-52
2021/09/03 02:17:26;;;;;;;;;;;;;;;20.70;54.93;96128.69;1048823;28;1190;-56
2021/09/03 02:17:56;;;;;;;;;;;;;;;20.70;54.85;96127.88;1048748;28;1281;-55
2021/09/03 02:18:26;;;;;;;;;;;;;;;20.71;54.93;96132.88;1049000;28;1288;-57
2021/09/03 02:18:58;;;;;;;;;;;;;;;20.70;54.87;96120.78;1048869;28;1464;-53
2021/09/03 02:19:29;;;;;;;;;;;;;;;20.70;55.03;96120.78;1049006;28;1902;-53
2021/09/03 02:19:59;;;;;;;;;;;;;;;20.71;55.03;96121.56;1047922;28;2145;-56
2021/09/03 02:20:29;;;;;;;;;;;;;;;20.70;54.94;96117.34;1048830;28;1090;-56
2021/09/03 02:21:00;;;;;;;;;;;;;;;20.70;54.85;96122.63;1048732;28;1112;-54
2021/09/03 02:21:30;;;;;;;;;;;;;;;20.70;55.00;96123.41;1049089;28;1228;-53
2021/09/03 02:22:00;;;;;;;;;;;;;;;20.71;54.93;96118.94;1049159;28;1288;-57
2021/09/03 02:22:31;;;;;;;;;;;;;;;20.70;54.76;96123.41;1048449;28;1237;-56
2021/09/03 02:23:01;;;;;;;;;;;;;;;20.70;54.94;96122.63;1049013;28;1064;-56
2021/09/03 02:23:31;;;;;;;;;;;;;;;20.70;54.78;96127.88;1047300;28;1519;-56
2021/09/03 02:24:02;;;;;;;;;;;;;;;20.70;54.92;96115.50;1049206;28;1056;-53
2021/09/03 02:24:32;;;;;;;;;;;;;;;20.71;54.80;96121.56;1049007;28;1256;-55
2021/09/03 02:25:03;;;;;;;;;;;;;;;20.69;54.73;96121.81;1047587;28;2161;-53
2021/09/03 02:25:34;;;;;;;;;;;;;;;20.70;54.90;96112.88;1048994;28;1075;-55
2021/09/03 02:26:04;;;;;;;;;;;;;;;20.70;54.71;96112.88;1049089;28;1111;-54
2021/09/03 02:26:34;;;;;;;;;;;;;;;20.70;54.76;96123.41;1048795;28;1289;-55
2021/09/03 02:27:04;;;;;;;;;;;;;;;20.69;55.09;96116.56;1048349;28;1434;-55
2021/09/03 02:27:35;;;;;;;;;;;;;;;20.70;54.94;96118.16;1048608;28;1420;-55
2021/09/03 02:28:05;;;;;;;;;;;;;;;20.69;54.96;96116.56;1048953;28;1092;-52
2021/09/03 02:28:35;;;;;;;;;;;;;;;20.70;54.74;96114.72;1048453;28;1280;-52
2021/09/03 02:29:06;;;;;;;;;;;;;;;20.70;54.59;96122.63;1048412;28;1411;-53
2021/09/03 02:29:36;;;;;;;;;;;;;;;20.69;54.73;96108.66;1048785;28;1331;-56
2021/09/03 02:30:07;;;;;;;;;;;;;;;20.69;54.77;96116.56;1047606;28;1962;-55
2021/09/03 02:30:37;;;;;;;;;;;;;;;20.70;54.92;96117.34;1049190;28;1019;-53
2021/09/03 02:31:07;;;;;;;;;;;;;;;20.70;54.59;96119.97;1048728;28;1170;-53
2021/09/03 02:31:38;;;;;;;;;;;;;;;20.69;54.97;96121.81;1048166;28;1559;-51
2021/09/03 02:32:08;;;;;;;;;;;;;;;20.69;54.96;96127.09;1048706;28;1446;-56
2021/09/03 02:32:38;;;;;;;;;;;;;;;20.70;54.67;96120.78;1048583;28;1264;-55
2021/09/03 02:33:09;;;;;;;;;;;;;;;20.70;54.75;96123.41;1048500;28;1633;-53
2021/09/03 02:33:39;;;;;;;;;;;;;;;20.69;54.85;96118.41;1049078;28;1249;-52
2021/09/03 02:34:09;;;;;;;;;;;;;;;20.69;54.86;96121.81;1049070;28;1234;-55
2021/09/03 02:34:40;;;;;;;;;;;;;;;20.70;55.04;96120.78;1044324;28;1174;-55
2021/09/03 02:35:10;;;;;;;;;;;;;;;20.69;54.72;96116.56;1041570;28;1973;-55
2021/09/03 02:35:42;;;;;;;;;;;;;;;20.69;54.78;96121.81;1041993;28;1219;-54
2021/09/03 02:36:13;;;;;;;;;;;;;;;20.69;54.72;96119.19;1041170;28;1422;-55
2021/09/03 02:36:43;;;;;;;;;;;;;;;20.69;54.68;96121.06;1047576;28;1697;-57
2021/09/03 02:37:14;;;;;;;;;;;;;;;20.68;54.90;96120.25;1048419;28;1269;-54
2021/09/03 02:37:44;;;;;;;;;;;;;;;20.68;54.82;96120.25;1048733;28;1186;-55
2021/09/03 02:38:14;;;;;;;;;;;;;;;20.70;54.85;96127.88;1049106;28;1318;-56
2021/09/03 02:38:45;;;;;;;;;;;;;;;20.70;54.86;96127.88;1048830;28;1209;-53
2021/09/03 02:39:15;;;;;;;;;;;;;;;20.69;54.85;96121.81;1048923;28;1910;-55
2021/09/03 02:39:45;;;;;;;;;;;;;;;20.69;54.66;96121.81;1048989;28;1190;-56
2021/09/03 02:40:15;;;;;;;;;;;;;;;20.69;54.78;96131.59;1047812;28;2118;-50
2021/09/03 02:40:46;;;;;;;;;;;;;;;20.69;54.86;96129.72;1048864;28;1214;-56
2021/09/03 02:41:16;;;;;;;;;;;;;;;20.69;54.90;96121.06;1049010;28;1263;-51
2021/09/03 02:41:46;;;;;;;;;;;;;;;20.69;54.71;96132.34;1048712;28;1134;-53
2021/09/03 02:42:17;;;;;;;;;;;;;;;20.69;54.81;96121.81;1049024;28;1312;-57
2021/09/03 02:42:47;;;;;;;;;;;;;;;20.70;54.75;96127.88;1048571;28;1275;-57
2021/09/03 02:43:17;;;;;;;;;;;;;;;20.69;54.74;96127.09;1047121;28;1403;-56
2021/09/03 02:43:48;;;;;;;;;;;;;;;20.69;54.94;96121.81;1047798;28;1186;-55
2021/09/03 02:44:18;;;;;;;;;;;;;;;20.69;54.66;96115.78;1047928;28;2125;-55
2021/09/03 02:44:48;;;;;;;;;;;;;;;20.70;54.94;96130.53;1046369;28;1992;-52